Time;durP1;ratioP1;P1;durP2;ratioP2;P2;SDS_P1;SDS_P2;PMS_P1;PMS_P2;Temp;Humidity;BMP_temperature;BMP_pressure;BME280_temperature;BME280_humidity;BME280_pressure;Samples;Min_cycle;Max_cycle;Signal;HPM_P1;HPM_P2
2021/10/03 00:02:05;;;;;;;6.97;4.53;;;;;;;19.12;54.56;97723.63;2622185;54;20050;-68
2021/10/03 00:04:39;;;;;;;5.10;4.60;;;;;;;19.14;55.14;97720.66;2621972;54;20042;-67
2021/10/03 00:07:08;;;;;;;;;;;;;;;19.14;54.65;97723.34;2621993;54;20046;-69
2021/10/03 00:09:39;;;;;;;5.32;4.78;;;;;;;19.13;54.83;97730.56;2622595;31;20453;-69
2021/10/03 00:12:09;;;;;;;7.10;5.43;;;;;;;19.13;55.25;97729.78;2621897;54;20030;-69
2021/10/03 00:14:39;;;;;;;6.00;4.85;;;;;;;19.12;54.98;97736.22;2621732;47;20035;-69
2021/10/03 00:17:08;;;;;;;5.97;4.88;;;;;;;19.09;55.28;97718.81;2622041;54;20019;-69
2021/10/03 00:19:41;;;;;;;5.70;4.80;;;;;;;19.08;55.65;97716.41;2621877;39;20524;-68
2021/10/03 00:22:10;;;;;;;5.25;4.70;;;;;;;19.06;55.65;97719.34;2622050;54;20034;-69
2021/10/03 00:24:40;;;;;;;7.00;5.30;;;;;;;19.05;55.59;97723.09;2621914;54;20041;-69
2021/10/03 00:27:10;;;;;;;7.15;5.20;;;;;;;19.04;55.68;97711.59;2621885;54;20045;-69
2021/10/03 00:29:40;;;;;;;7.40;4.68;;;;;;;19.02;55.75;97707.56;2622610;54;20045;-68
2021/10/03 00:32:10;;;;;;;5.65;4.60;;;;;;;19.01;55.74;97709.47;2622859;39;20445;-69
2021/10/03 00:34:42;;;;;;;7.68;5.75;;;;;;;19.02;55.58;97711.09;2621621;46;20038;-69
2021/10/03 00:37:12;;;;;;;5.95;4.95;;;;;;;18.99;55.82;97705.47;2619003;54;20022;-69
2021/10/03 00:39:41;;;;;;;7.68;4.60;;;;;;;19.01;55.67;97709.47;2618393;54;20054;-69
2021/10/03 00:42:11;;;;;;;5.82;4.50;;;;;;;19.01;55.29;97716.69;2618887;54;20034;-68
2021/10/03 00:44:41;;;;;;;8.25;4.70;;;;;;;18.99;55.56;97710.81;2620080;54;20038;-69
2021/10/03 00:47:11;;;;;;;5.78;4.82;;;;;;;18.99;55.58;97708.94;2617958;54;20035;-64
2021/10/03 00:49:44;;;;;;;5.82;5.18;;;;;;;18.98;55.76;97702.00;2619126;54;20029;-64
2021/10/03 00:52:14;;;;;;;5.63;4.15;;;;;;;18.96;55.53;97709.47;2619071;47;20026;-63
2021/10/03 00:54:44;;;;;;;6.18;4.50;;;;;;;18.91;56.23;97698.00;2619291;54;20042;-63
2021/10/03 00:57:14;;;;;;;6.57;4.25;;;;;;;18.88;56.13;97701.22;2619790;39;20433;-62
2021/10/03 00:59:44;;;;;;;5.05;4.32;;;;;;;18.84;55.97;97700.16;2620537;54;20121;-64
2021/10/03 01:02:13;;;;;;;4.93;4.07;;;;;;;18.81;56.27;97696.13;2619995;54;20030;-63
2021/10/03 01:04:46;;;;;;;5.45;4.95;;;;;;;18.80;55.96;97683.84;2619946;54;20044;-63
2021/10/03 01:07:16;;;;;;;4.85;4.32;;;;;;;18.81;56.20;97688.91;2620087;54;20538;-63
2021/10/03 01:09:45;;;;;;;5.22;4.72;;;;;;;18.83;55.84;97687.84;2619564;54;20034;-64
2021/10/03 01:12:15;;;;;;;7.07;4.82;;;;;;;18.84;56.05;97692.13;2618811;47;20061;-64
2021/10/03 01:14:45;;;;;;;5.18;4.32;;;;;;;18.81;55.75;97683.53;2619457;54;20042;-64
2021/10/03 01:17:14;;;;;;;5.47;4.15;;;;;;;18.84;55.68;97684.09;2619477;54;20029;-64
2021/10/03 01:19:47;;;;;;;6.50;5.00;;;;;;;18.86;55.51;97680.06;2619425;54;20561;-63
2021/10/03 01:22:19;;;;;;;5.97;4.50;;;;;;;18.86;55.79;97679.25;2619747;54;20038;-63
2021/10/03 01:24:49;;;;;;;6.63;4.30;;;;;;;18.85;55.61;97677.66;2619388;54;20018;-63
2021/10/03 01:27:19;;;;;;;4.50;4.07;;;;;;;18.86;55.80;97681.94;2619685;54;20550;-63
2021/10/03 01:29:49;;;;;;;6.05;4.47;;;;;;;18.87;55.41;97676.31;2619448;54;20031;-63
2021/10/03 01:32:20;;;;;;;6.63;4.38;;;;;;;18.88;55.29;97677.13;2618851;54;20031;-63
2021/10/03 01:34:49;;;;;;;4.80;4.30;;;;;;;18.90;55.36;97667.75;2619311;47;20034;-63
2021/10/03 01:37:23;;;;;;;4.90;4.20;;;;;;;18.91;55.10;97666.66;2618653;47;20034;-64
2021/10/03 01:39:53;;;;;;;5.88;4.55;;;;;;;18.91;55.08;97673.91;2619397;54;20561;-64
2021/10/03 01:42:23;;;;;;;6.28;5.22;;;;;;;18.92;54.92;97662.09;2619338;54;20030;-64
2021/10/03 01:44:52;;;;;;;6.82;4.53;;;;;;;18.93;54.57;97664.50;2619513;54;20061;-64
2021/10/03 01:47:22;;;;;;;6.78;5.10;;;;;;;18.94;54.59;97657.25;2618774;54;20042;-63
2021/10/03 01:49:52;;;;;;;6.53;4.70;;;;;;;18.95;54.82;97661.56;2618486;47;20521;-63
2021/10/03 01:52:24;;;;;;;6.15;4.63;;;;;;;18.97;54.71;97656.72;2619532;54;20518;-63
2021/10/03 01:54:54;;;;;;;7.47;4.80;;;;;;;19.00;54.47;97659.66;2619258;54;20032;-63
2021/10/03 01:57:24;;;;;;;10.18;5.13;;;;;;;19.02;54.64;97645.97;2619198;39;20442;-64
2021/10/03 01:59:53;;;;;;;5.47;4.80;;;;;;;19.02;54.46;97648.66;2619464;54;20046;-64
2021/10/03 02:02:23;;;;;;;7.30;4.80;;;;;;;19.01;54.64;97642.50;2619027;54;20026;-63
2021/10/03 02:04:53;;;;;;;6.93;4.57;;;;;;;19.00;54.44;97640.91;2619186;54;20034;-64
2021/10/03 02:07:25;;;;;;;5.07;4.57;;;;;;;19.02;54.72;97636.09;2618813;54;20026;-64
2021/10/03 02:09:54;;;;;;;5.80;4.78;;;;;;;19.03;54.63;97637.69;2619743;54;20589;-64
2021/10/03 02:12:24;;;;;;;4.93;4.43;;;;;;;19.04;54.41;97639.28;2619505;54;20045;-64
2021/10/03 02:14:54;;;;;;;5.53;4.95;;;;;;;19.03;54.06;97634.22;2618358;47;20033;-64
2021/10/03 02:17:24;;;;;;;6.20;4.75;;;;;;;19.03;54.41;97631.53;2619010;54;20039;-63
2021/10/03 02:19:53;;;;;;;5.00;4.45;;;;;;;19.03;54.39;97624.28;2619121;54;20557;-64
2021/10/03 02:22:26;;;;;;;6.70;4.63;;;;;;;19.04;54.04;97625.09;2618917;54;20755;-64
2021/10/03 02:24:57;;;;;;;4.30;3.90;;;;;;;19.02;54.27;97621.88;2618774;54;20089;-63
2021/10/03 02:27:27;;;;;;;5.60;4.72;;;;;;;19.02;54.25;97622.69;2619000;54;20038;-63
2021/10/03 02:29:56;;;;;;;6.65;4.28;;;;;;;19.01;54.09;97617.59;2618970;54;20046;-64
2021/10/03 02:32:26;;;;;;;5.53;4.70;;;;;;;19.02;54.54;97620.03;2618710;54;20545;-63
2021/10/03 02:34:56;;;;;;;5.05;4.55;;;;;;;19.01;54.64;97631.78;2618597;54;20035;-64
2021/10/03 02:37:29;;;;;;;5.15;4.65;;;;;;;18.99;54.37;97617.09;2618984;54;20034;-64
2021/10/03 02:39:59;;;;;;;5.63;4.63;;;;;;;18.99;54.29;97609.84;2619265;54;20034;-64
2021/10/03 02:42:29;;;;;;;5.40;4.00;;;;;;;18.99;54.29;97606.38;2618941;54;20097;-64
2021/10/03 02:44:58;;;;;;;6.68;4.57;;;;;;;19.00;54.24;97602.63;2618164;47;20030;-64
2021/10/03 02:47:28;;;;;;;5.38;4.63;;;;;;;18.96;54.22;97602.38;2619054;54;20608;-63
2021/10/03 02:49:58;;;;;;;4.80;4.30;;;;;;;18.95;54.51;97594.63;2618942;54;20038;-64
2021/10/03 02:52:30;;;;;;;4.32;3.90;;;;;;;18.93;54.76;97597.56;2618579;54;20042;-64
2021/10/03 02:55:00;;;;;;;6.10;4.90;;;;;;;18.93;54.55;97596.75;2618228;54;20118;-63
2021/10/03 02:57:30;;;;;;;7.63;4.72;;;;;;;18.93;54.99;97594.06;2618972;54;20318;-64
2021/10/03 02:59:59;;;;;;;5.82;4.60;;;;;;;18.93;54.73;97581.47;2618490;51;20030;-64
2021/10/03 03:02:29;;;;;;;4.85;4.22;;;;;;;18.94;54.60;97576.94;2619044;54;20041;-64
2021/10/03 03:04:59;;;;;;;5.20;4.63;;;;;;;18.92;54.44;97582.56;2618266;47;20030;-64
2021/10/03 03:07:31;;;;;;;6.30;4.78;;;;;;;18.92;54.37;97577.22;2619109;54;20043;-63
2021/10/03 03:10:00;;;;;;;5.90;4.78;;;;;;;18.91;54.31;97572.94;2618745;54;20045;-63
2021/10/03 03:12:30;;;;;;;8.30;4.15;;;;;;;18.89;54.46;97580.44;2618384;39;20429;-63
2021/10/03 03:15:02;;;;;;;5.10;4.60;;;;;;;18.90;54.49;97575.88;2617768;54;20530;-64
2021/10/03 03:17:32;;;;;;;4.95;4.15;;;;;;;18.90;54.40;97574.03;2618551;54;20026;-64
2021/10/03 03:20:02;;;;;;;7.00;4.30;;;;;;;18.91;54.50;97575.63;2618576;54;20026;-63
2021/10/03 03:22:34;;;;;;;4.78;4.22;;;;;;;18.93;54.32;97578.00;2618450;54;20038;-63
2021/10/03 03:25:06;;;;;;;4.63;4.18;;;;;;;18.92;54.25;97574.53;2618313;54;20027;-64
2021/10/03 03:27:36;;;;;;;5.43;4.45;;;;;;;18.90;54.12;97560.63;2618403;54;20034;-64
2021/10/03 03:30:08;;;;;;;7.95;4.22;;;;;;;18.91;53.92;97558.75;2618358;54;20038;-64
2021/10/03 03:32:37;;;;;;;6.55;5.18;;;;;;;18.91;54.06;97556.88;2617830;47;20038;-64
2021/10/03 03:35:09;;;;;;;6.60;4.13;;;;;;;18.91;54.37;97562.22;2618013;54;20026;-64
2021/10/03 03:37:41;;;;;;;6.00;4.70;;;;;;;18.89;54.42;97550.97;2618438;54;20038;-64
2021/10/03 03:40:14;;;;;;;4.80;4.35;;;;;;;18.91;53.92;97551.53;2618117;54;20038;-64
2021/10/03 03:42:44;;;;;;;4.88;4.35;;;;;;;18.91;54.12;97550.72;2618212;54;20065;-64
2021/10/03 03:45:14;;;;;;;5.93;4.55;;;;;;;18.92;54.27;97552.31;2617966;54;20105;-64
2021/10/03 03:47:44;;;;;;;5.50;4.63;;;;;;;18.90;54.15;97559.81;2618237;54;20069;-64
2021/10/03 03:50:15;;;;;;;3.95;3.55;;;;;;;18.88;54.33;97557.41;2618259;54;20046;-64
2021/10/03 03:52:48;;;;;;;6.03;4.18;;;;;;;18.91;54.01;97553.41;2618390;54;20534;-64
2021/10/03 03:55:17;;;;;;;7.50;4.55;;;;;;;18.90;54.64;97552.59;2617846;54;20825;-64
2021/10/03 03:57:49;;;;;;;5.60;4.38;;;;;;;18.93;54.95;97553.91;2618068;39;20463;-64
2021/10/03 04:00:19;;;;;;;6.15;4.53;;;;;;;18.92;54.89;97550.44;2618269;54;20033;-64
2021/10/03 04:02:48;;;;;;;4.97;4.15;;;;;;;18.90;55.05;97547.25;2618119;54;20038;-64
2021/10/03 04:05:18;;;;;;;5.15;4.35;;;;;;;18.87;54.92;97541.66;2618601;54;20038;-64
2021/10/03 04:07:50;;;;;;;5.07;4.28;;;;;;;18.86;54.80;97535.50;2618904;47;20053;-63
2021/10/03 04:10:20;;;;;;;5.95;4.28;;;;;;;18.85;55.33;97535.75;2619302;54;20057;-63
2021/10/03 04:12:49;;;;;;;4.85;4.18;;;;;;;18.86;54.87;97540.84;2619282;39;20433;-63
2021/10/03 04:15:19;;;;;;;4.50;4.10;;;;;;;18.86;54.59;97529.31;2618507;54;20129;-63
2021/10/03 04:17:49;;;;;;;5.18;4.28;;;;;;;18.86;54.82;97530.13;2619097;54;20030;-63
2021/10/03 04:20:18;;;;;;;7.78;5.55;;;;;;;18.85;54.70;97528.50;2620320;54;20039;-64
2021/10/03 04:22:50;;;;;;;4.63;4.22;;;;;;;18.83;54.47;97519.19;2621305;54;20022;-63
2021/10/03 04:25:20;;;;;;;5.35;4.20;;;;;;;18.83;54.12;97511.94;2619291;54;20042;-63
2021/10/03 04:27:50;;;;;;;6.10;4.57;;;;;;;18.84;54.14;97512.75;2619046;54;20042;-63
2021/10/03 04:30:20;;;;;;;4.45;4.05;;;;;;;18.85;53.93;97503.63;2618926;54;20023;-63
2021/10/03 04:32:49;;;;;;;6.03;4.70;;;;;;;18.87;53.97;97506.84;2619004;54;20034;-63
2021/10/03 04:35:19;;;;;;;4.45;3.97;;;;;;;18.86;53.96;97508.72;2618730;54;20690;-63
2021/10/03 04:37:51;;;;;;;4.10;3.70;;;;;;;18.89;53.47;97508.13;2619095;54;20038;-63
2021/10/03 04:40:21;;;;;;;5.00;4.25;;;;;;;18.91;53.67;97506.00;2619020;54;20054;-63
2021/10/03 04:42:50;;;;;;;4.32;3.92;;;;;;;18.92;53.43;97506.78;2619077;54;20042;-63
2021/10/03 04:45:20;;;;;;;5.28;4.28;;;;;;;18.93;52.83;97493.13;2618639;54;20070;-63
2021/10/03 04:47:49;;;;;;;5.53;4.30;;;;;;;18.94;53.29;97491.25;2618861;54;20027;-63
2021/10/03 04:50:19;;;;;;;4.15;3.75;;;;;;;18.94;52.34;97491.25;2618835;54;20562;-63
2021/10/03 04:52:51;;;;;;;5.43;4.20;;;;;;;18.96;52.36;97492.56;2618919;54;20026;-63
2021/10/03 04:55:21;;;;;;;4.85;3.92;;;;;;;18.97;52.62;97480.78;2618653;54;20018;-64
2021/10/03 04:57:50;;;;;;;5.38;4.25;;;;;;;18.99;52.18;97489.34;2618819;54;20026;-64
2021/10/03 05:00:20;;;;;;;5.57;4.20;;;;;;;19.01;52.10;97483.69;2618716;54;20553;-64
2021/10/03 05:02:49;;;;;;;5.60;3.90;;;;;;;19.02;51.99;97487.97;2618694;54;20038;-64
2021/10/03 05:05:19;;;;;;;4.95;4.20;;;;;;;19.05;51.79;97490.88;2618147;47;20110;-64
2021/10/03 05:07:51;;;;;;;7.25;3.97;;;;;;;19.05;51.65;97490.88;2618959;54;20023;-64
2021/10/03 05:10:21;;;;;;;4.88;3.75;;;;;;;19.07;51.61;97495.19;2619082;54;20031;-63
2021/10/03 05:12:51;;;;;;;7.18;3.92;;;;;;;19.08;51.12;97488.75;2619170;54;20027;-64
2021/10/03 05:15:20;;;;;;;4.68;4.28;;;;;;;19.11;51.42;97488.19;2618991;54;20790;-64
2021/10/03 05:17:50;;;;;;;4.80;4.25;;;;;;;19.09;51.50;97498.38;2621673;47;20019;-64
2021/10/03 05:20:19;;;;;;;6.65;4.30;;;;;;;19.10;51.45;97495.41;2622707;54;20073;-63
2021/10/03 05:22:52;;;;;;;4.82;4.28;;;;;;;19.10;51.43;97482.00;2622503;54;20038;-64
2021/10/03 05:25:22;;;;;;;7.60;3.83;;;;;;;19.10;51.22;97490.06;2621570;54;20030;-64
2021/10/03 05:27:51;;;;;;;6.65;4.50;;;;;;;19.10;51.04;97490.06;2620697;54;20074;-64
2021/10/03 05:30:21;;;;;;;4.88;3.65;;;;;;;19.12;51.11;97490.59;2619012;54;20031;-64
2021/10/03 05:32:52;;;;;;;4.65;3.83;;;;;;;19.14;50.83;97495.66;2619060;54;20034;-63
2021/10/03 05:35:22;;;;;;;4.25;3.85;;;;;;;19.14;50.42;97499.13;2618845;54;20035;-63
2021/10/03 05:37:55;;;;;;;4.25;3.85;;;;;;;19.16;50.72;97494.31;2618855;54;20030;-63
2021/10/03 05:40:24;;;;;;;4.88;3.88;;;;;;;19.17;50.28;97500.47;2619533;54;20030;-63
2021/10/03 05:42:54;;;;;;;4.25;3.78;;;;;;;19.17;50.94;97497.78;2620692;54;20030;-63
2021/10/03 05:45:24;;;;;;;4.38;3.70;;;;;;;19.17;50.44;97503.13;2621125;54;20031;-66
2021/10/03 05:47:53;;;;;;;4.68;4.00;;;;;;;19.20;50.02;97500.69;2621499;54;20030;-64
2021/10/03 05:50:23;;;;;;;5.32;3.83;;;;;;;19.19;50.41;97501.00;2620391;54;20023;-64
2021/10/03 05:52:55;;;;;;;5.47;3.72;;;;;;;19.20;49.97;97503.38;2619233;54;20022;-64
2021/10/03 05:55:25;;;;;;;4.30;3.60;;;;;;;19.20;50.18;97507.94;2619291;39;20430;-64
2021/10/03 05:57:54;;;;;;;6.53;4.30;;;;;;;19.20;49.86;97494.56;2618909;54;20026;-64
2021/10/03 06:00:24;;;;;;;6.63;3.67;;;;;;;19.22;50.58;97503.09;2618801;54;20054;-64
2021/10/03 06:02:53;;;;;;;8.50;3.80;;;;;;;19.21;50.40;97501.50;2618372;54;20038;-64
2021/10/03 06:05:24;;;;;;;4.20;3.80;;;;;;;19.18;50.48;97504.72;2618309;54;20034;-64
2021/10/03 06:07:56;;;;;;;6.55;4.03;;;;;;;19.18;50.98;97500.16;2618866;54;20019;-64
2021/10/03 06:10:26;;;;;;;5.10;4.03;;;;;;;19.17;50.44;97509.28;2618806;54;20045;-64
2021/10/03 06:12:56;;;;;;;3.50;3.20;;;;;;;19.17;50.81;97509.28;2618267;54;20033;-64
2021/10/03 06:15:26;;;;;;;4.05;3.65;;;;;;;19.16;50.41;97505.03;2618481;54;20037;-63
2021/10/03 06:17:55;;;;;;;4.20;3.80;;;;;;;19.19;50.01;97514.38;2618535;54;20022;-63
2021/10/03 06:20:25;;;;;;;5.80;4.75;;;;;;;19.20;50.11;97524.81;2619028;54;20023;-63
2021/10/03 06:22:57;;;;;;;5.13;3.85;;;;;;;19.21;49.48;97518.38;2620505;39;20446;-63
2021/10/03 06:25:27;;;;;;;5.03;3.95;;;;;;;19.22;49.64;97519.97;2619246;39;20457;-63
2021/10/03 06:27:56;;;;;;;4.38;3.80;;;;;;;19.22;49.44;97509.25;2618750;54;20549;-63
2021/10/03 06:30:26;;;;;;;3.63;3.25;;;;;;;19.26;49.04;97520.19;2619887;54;20031;-63
2021/10/03 06:32:57;;;;;;;4.72;4.22;;;;;;;19.26;49.31;97526.34;2619887;54;20030;-63
2021/10/03 06:35:27;;;;;;;4.10;3.70;;;;;;;19.29;48.87;97535.72;2620827;51;20041;-63
2021/10/03 06:38:00;;;;;;;4.43;3.75;;;;;;;19.31;49.17;97533.59;2621734;54;20150;-63
2021/10/03 06:40:30;;;;;;;4.60;3.53;;;;;;;19.30;49.32;97540.00;2621005;54;20027;-63
2021/10/03 06:43:00;;;;;;;7.00;3.90;;;;;;;19.30;49.39;97545.34;2620784;54;20034;-63
2021/10/03 06:45:29;;;;;;;4.28;3.88;;;;;;;19.30;49.11;97545.34;2619617;54;20542;-63
2021/10/03 06:47:59;;;;;;;3.90;3.55;;;;;;;19.28;48.89;97551.00;2618310;54;20045;-69
2021/10/03 06:50:29;;;;;;;5.35;3.20;;;;;;;19.30;49.13;97545.34;2621322;54;20041;-69
2021/10/03 06:53:01;;;;;;;5.45;3.70;;;;;;;19.30;49.08;97556.06;2621112;47;20034;-69
2021/10/03 06:55:31;;;;;;;5.15;3.90;;;;;;;19.30;49.48;97558.75;2621680;54;20023;-69
2021/10/03 06:58:03;;;;;;;4.90;3.47;;;;;;;19.32;49.19;97558.50;2621861;54;20030;-70
2021/10/03 07:00:33;;;;;;;4.32;3.63;;;;;;;19.31;49.35;97555.03;2620934;54;20034;-69
2021/10/03 07:03:03;;;;;;;4.38;3.97;;;;;;;19.31;48.74;97568.41;2621059;54;20850;-70
2021/10/03 07:05:33;;;;;;;3.78;3.28;;;;;;;19.30;48.88;97567.59;2621263;39;20418;-69
2021/10/03 07:08:06;;;;;;;5.20;3.47;;;;;;;19.30;49.30;97559.56;2621876;54;20034;-69
2021/10/03 07:10:35;;;;;;;;;;;;;;;19.30;49.16;97572.94;2621743;54;20045;-68
2021/10/03 07:13:05;;;;;;;5.65;3.75;;;;;;;19.29;48.87;97575.91;2621247;54;19995;-69
2021/10/03 07:15:35;;;;;;;4.45;3.78;;;;;;;19.30;49.06;97589.03;2620481;54;20034;-68
2021/10/03 07:18:06;;;;;;;4.35;3.85;;;;;;;19.32;49.51;97577.25;2622847;39;20414;-69
2021/10/03 07:20:36;;;;;;;6.18;3.65;;;;;;;19.34;50.42;97578.56;2621630;54;20026;-69
2021/10/03 07:23:08;;;;;;;3.83;3.42;;;;;;;19.38;50.23;97578.81;2621890;54;20034;-69
2021/10/03 07:25:38;;;;;;;4.47;3.65;;;;;;;19.38;50.76;97593.00;2622275;39;20446;-68
2021/10/03 07:28:08;;;;;;;4.35;3.60;;;;;;;19.36;50.92;97595.16;2621321;54;20070;-69
2021/10/03 07:30:38;;;;;;;5.28;4.10;;;;;;;19.36;51.39;97579.09;2621825;54;20038;-69
2021/10/03 07:33:08;;;;;;;4.30;3.70;;;;;;;19.36;51.58;97581.78;2622134;54;20027;-69
2021/10/03 07:35:37;;;;;;;6.65;5.15;;;;;;;19.35;51.46;97590.06;2621951;54;20027;-69
2021/10/03 07:38:09;;;;;;;5.32;4.82;;;;;;;19.36;51.09;97584.44;2621397;47;20054;-68
2021/10/03 07:40:39;;;;;;;4.28;3.88;;;;;;;19.35;50.85;97582.03;2623792;39;20473;-69
2021/10/03 07:43:09;;;;;;;5.47;4.90;;;;;;;19.37;50.86;97585.25;2624097;54;20057;-69
2021/10/03 07:45:38;;;;;;;8.15;6.43;;;;;;;19.38;50.99;97593.00;2623220;54;20043;-69
2021/10/03 07:48:08;;;;;;;6.18;4.72;;;;;;;19.39;50.82;97589.25;2623889;39;20391;-69
2021/10/03 07:50:38;;;;;;;4.68;4.28;;;;;;;19.40;50.84;97587.38;2623395;39;20413;-66
2021/10/03 07:53:10;;;;;;;6.03;4.53;;;;;;;19.43;50.60;97589.47;2623979;39;20474;-67
2021/10/03 07:55:39;;;;;;;6.13;4.88;;;;;;;19.42;50.61;97590.56;2623067;54;20038;-68
2021/10/03 07:58:09;;;;;;;7.15;5.47;;;;;;;19.42;50.84;97586.00;2621803;46;20047;-68
2021/10/03 08:00:39;;;;;;;7.35;5.90;;;;;;;19.43;50.93;97592.16;2623481;31;20472;-68
2021/10/03 08:03:11;;;;;;;6.65;5.32;;;;;;;19.46;51.04;97597.75;2623135;39;20411;-67
2021/10/03 08:05:40;;;;;;;5.65;5.05;;;;;;;19.45;50.77;97592.69;2623094;54;20037;-68
2021/10/03 08:08:13;;;;;;;5.30;4.30;;;;;;;19.49;50.50;97605.25;2622824;54;20030;-67
2021/10/03 08:10:43;;;;;;;5.15;4.32;;;;;;;19.48;50.82;97597.50;2623123;54;20033;-67
2021/10/03 08:13:13;;;;;;;7.10;4.10;;;;;;;19.47;50.65;97606.59;2622720;54;20033;-68
2021/10/03 08:15:43;;;;;;;4.63;3.78;;;;;;;19.48;50.84;97608.22;2622060;54;20022;-67
2021/10/03 08:18:13;;;;;;;3.97;3.58;;;;;;;19.48;50.78;97603.66;2622124;54;20034;-67
2021/10/03 08:20:43;;;;;;;5.45;3.90;;;;;;;19.50;50.12;97600.69;2622302;54;20549;-68
2021/10/03 08:23:16;;;;;;;4.38;3.97;;;;;;;19.51;49.89;97603.09;2620905;54;20027;-68
2021/10/03 08:25:46;;;;;;;5.53;4.50;;;;;;;19.50;50.15;97600.69;2620190;54;20069;-67
2021/10/03 08:28:15;;;;;;;5.00;4.40;;;;;;;19.51;50.27;97602.28;2620921;54;20034;-67
2021/10/03 08:30:45;;;;;;;5.18;4.47;;;;;;;19.51;49.69;97610.31;2620977;54;20027;-68
2021/10/03 08:33:15;;;;;;;4.55;4.10;;;;;;;19.52;49.77;97614.63;2620762;54;20026;-67
2021/10/03 08:35:44;;;;;;;4.93;4.43;;;;;;;19.58;49.58;97615.38;2620716;31;20519;-68
2021/10/03 08:38:17;;;;;;;9.20;8.20;;;;;;;19.63;49.54;97610.00;2620304;54;20045;-68
2021/10/03 08:40:47;;;;;;;5.38;4.68;;;;;;;19.62;49.20;97613.75;2620472;54;20041;-68
2021/10/03 08:43:17;;;;;;;5.03;3.97;;;;;;;19.64;49.00;97604.38;2619945;54;20031;-68
2021/10/03 08:45:47;;;;;;;5.45;4.95;;;;;;;19.67;49.24;97605.69;2620213;54;20044;-68
2021/10/03 08:48:29;;;;;;;4.70;4.00;;;;;;;19.70;48.91;97613.97;2620216;54;20122;-68
2021/10/03 08:50:59;;;;;;;4.60;4.18;;;;;;;19.73;48.52;97610.72;2620344;54;20159;-68
2021/10/03 08:53:31;;;;;;;4.38;3.97;;;;;;;19.82;48.72;97613.59;2621272;54;20042;-67
2021/10/03 08:56:00;;;;;;;4.57;4.18;;;;;;;19.91;48.70;97611.13;2621837;39;20458;-68
2021/10/03 08:58:31;;;;;;;4.00;3.60;;;;;;;19.98;48.45;97611.59;2621937;54;20038;-67
2021/10/03 09:01:02;;;;;;;3.72;3.33;;;;;;;20.02;47.92;97615.31;2621443;47;20026;-67
2021/10/03 09:03:32;;;;;;;4.13;3.72;;;;;;;20.04;47.87;97611.28;2621748;54;20033;-68
2021/10/03 09:06:03;;;;;;;4.38;3.70;;;;;;;20.08;48.03;97611.47;2620899;52;20023;-69
2021/10/03 09:08:40;;;;;;;6.10;5.50;;;;;;;20.12;47.73;97619.78;2621370;54;20027;-68
2021/10/03 09:11:11;;;;;;;4.43;4.00;;;;;;;20.18;47.64;97615.97;2621532;54;20085;-68
2021/10/03 09:13:51;;;;;;;4.53;3.60;;;;;;;20.19;47.92;97621.03;2621843;54;20050;-68
2021/10/03 09:16:24;;;;;;;4.05;3.53;;;;;;;20.20;47.48;97621.84;2621511;54;20026;-68
2021/10/03 09:18:54;;;;;;;;;;;;;;;20.22;47.93;97617.78;2621664;54;20041;-68
2021/10/03 09:21:41;;;;;;;5.65;3.75;;;;;;;20.20;47.47;97624.53;2622021;39;20315;-68
2021/10/03 09:24:17;;;;;;;4.55;4.00;;;;;;;20.18;48.00;97624.81;2620976;54;20569;-68
2021/10/03 09:27:00;;;;;;;6.55;4.60;;;;;;;20.19;48.22;97620.25;2621467;39;20450;-68
2021/10/03 09:29:33;;;;;;;4.68;3.88;;;;;;;20.21;48.31;97620.78;2620353;52;20557;-67
2021/10/03 09:32:14;;;;;;;6.00;4.60;;;;;;;20.27;47.88;97627.69;2619907;54;20043;-66
2021/10/03 09:34:46;;;;;;;5.28;4.28;;;;;;;20.32;47.76;97626.81;2620285;54;20043;-67
2021/10/03 09:37:25;;;;;;;4.28;3.67;;;;;;;20.36;47.94;97619.81;2621419;39;20422;-68
2021/10/03 09:40:06;;;;;;;4.53;3.67;;;;;;;20.37;48.04;97610.66;2620752;54;20061;-70
2021/10/03 09:42:37;;;;;;;4.18;2.90;;;;;;;20.37;48.19;97616.84;2620210;47;20043;-68
2021/10/03 09:45:13;;;;;;;5.45;3.88;;;;;;;20.43;47.95;97614.91;2619647;54;20035;-69
2021/10/03 09:47:44;;;;;;;7.35;6.57;;;;;;;20.45;48.19;97624.28;2620284;54;20026;-69
2021/10/03 09:50:16;;;;;;;9.35;7.80;;;;;;;20.52;47.76;97629.31;2620403;54;20550;-67
2021/10/03 09:52:46;;;;;;;4.05;3.63;;;;;;;20.58;47.52;97627.41;2621298;47;20027;-68
2021/10/03 09:55:18;;;;;;;4.10;3.70;;;;;;;20.64;47.54;97632.41;2620954;39;20426;-68
2021/10/03 09:57:48;;;;;;;4.33;3.77;;;;;;;20.70;47.64;97638.53;2621415;54;20050;-68
2021/10/03 10:00:19;;;;;;;5.00;4.03;;;;;;;20.80;47.15;97642.97;2621263;54;20082;-68
2021/10/03 10:02:50;;;;;;;4.15;3.70;;;;;;;20.84;47.58;97646.69;2621105;54;20045;-68
2021/10/03 10:05:22;;;;;;;3.60;3.30;;;;;;;20.84;47.57;97649.38;2620336;54;20062;-69
2021/10/03 10:07:51;;;;;;;6.15;4.05;;;;;;;20.78;48.20;97648.66;2621253;54;20034;-69
2021/10/03 10:10:26;;;;;;;4.40;3.90;;;;;;;20.74;48.83;97642.25;2620326;54;20031;-68
2021/10/03 10:13:00;;;;;;;8.32;4.05;;;;;;;20.69;48.79;97634.22;2619651;54;20538;-68
2021/10/03 10:15:29;;;;;;;;;;;;;;;20.66;48.78;97630.25;2618995;54;20027;-68
2021/10/03 10:17:59;;;;;;;4.47;3.92;;;;;;;20.70;49.29;97635.84;2621438;39;20354;-68
2021/10/03 10:20:37;;;;;;;5.10;4.60;;;;;;;20.80;48.55;97630.34;2620382;47;20018;-68
2021/10/03 10:23:09;;;;;;;7.20;5.53;;;;;;;20.80;49.49;97633.03;2620640;54;20034;-69
2021/10/03 10:25:48;;;;;;;4.15;3.55;;;;;;;20.83;49.76;97632.47;2620841;54;20054;-68
2021/10/03 10:28:22;;;;;;;7.47;6.30;;;;;;;20.87;49.62;97628.13;2621174;54;20034;-68
2021/10/03 10:31:16;;;;;;;8.13;4.28;;;;;;;20.87;50.25;97628.13;2621329;54;20041;-68
2021/10/03 10:34:07;;;;;;;7.03;5.00;;;;;;;20.90;49.55;97624.84;2620835;54;20038;-68
2021/10/03 10:36:55;;;;;;;5.07;4.47;;;;;;;20.89;49.76;97604.44;2620458;54;20023;-68
2021/10/03 10:39:31;;;;;;;4.68;4.20;;;;;;;20.87;50.26;97606.63;2620693;54;20026;-69
2021/10/03 10:42:04;;;;;;;5.70;4.00;;;;;;;20.83;50.55;97597.53;2621063;54;20034;-69
2021/10/03 10:44:39;;;;;;;3.50;3.20;;;;;;;20.75;51.34;97593.59;2620238;47;20034;-69
2021/10/03 10:47:14;;;;;;;17.65;14.77;;;;;;;20.71;51.16;97602.53;2620573;54;20291;-68
2021/10/03 10:49:52;;;;;;;21.35;18.52;;;;;;;20.63;51.52;97603.16;2620454;54;20027;-68
2021/10/03 10:52:39;;;;;;;5.93;5.38;;;;;;;20.58;51.13;97595.19;2620713;46;20045;-69
2021/10/03 10:55:25;;;;;;;6.07;5.50;;;;;;;20.48;51.31;97583.44;2619791;54;20022;-69
2021/10/03 10:58:13;;;;;;;4.25;3.85;;;;;;;20.41;51.58;97583.00;2619301;47;20530;-69
2021/10/03 11:00:58;;;;;;;5.38;4.10;;;;;;;20.42;50.89;97581.91;2619858;54;20038;-68
2021/10/03 11:03:57;;;;;;;6.13;4.97;;;;;;;20.45;51.10;97577.81;2619829;54;20039;-66
2021/10/03 11:07:03;;;;;;;4.57;4.18;;;;;;;20.52;50.63;97571.06;2619378;54;20043;-67
2021/10/03 11:09:48;;;;;;;4.65;4.25;;;;;;;20.68;50.55;97577.03;2620346;54;20043;-67
2021/10/03 11:12:32;;;;;;;7.30;5.68;;;;;;;20.87;50.39;97562.84;2619771;54;20522;-70
2021/10/03 11:15:34;;;;;;;5.95;5.35;;;;;;;21.10;49.88;97564.66;2619162;54;20284;-69
2021/10/03 11:18:08;;;;;;;4.18;3.38;;;;;;;21.32;49.63;97574.03;2619318;54;20162;-67
2021/10/03 11:20:57;;;;;;;9.85;3.33;;;;;;;21.60;49.21;97569.59;2619505;54;20604;-68
2021/10/03 11:23:27;;;;;;;6.38;4.63;;;;;;;21.83;48.66;97581.31;2618465;47;20041;-69
2021/10/03 11:26:04;;;;;;;4.13;3.72;;;;;;;21.94;47.49;97580.03;2618025;47;20043;-67
2021/10/03 11:28:49;;;;;;;6.85;4.70;;;;;;;21.97;47.87;97574.06;2619037;54;20031;-68
2021/10/03 11:31:40;;;;;;;3.97;3.20;;;;;;;21.95;47.45;97578.94;2618754;47;20045;-68
2021/10/03 11:34:10;;;;;;;4.10;3.70;;;;;;;21.93;46.89;97583.84;2619577;54;20030;-66
2021/10/03 11:36:50;;;;;;;10.10;5.57;;;;;;;21.97;47.60;97582.16;2619657;54;20037;-68
2021/10/03 11:39:20;;;;;;;5.47;3.45;;;;;;;22.01;47.07;97591.22;2619145;51;20031;-67
2021/10/03 11:41:50;;;;;;;8.38;4.88;;;;;;;21.99;47.45;97588.00;2620179;54;20045;-68
2021/10/03 11:44:21;;;;;;;6.47;3.55;;;;;;;21.93;47.25;97592.69;2619665;54;20031;-69
2021/10/03 11:47:06;;;;;;;4.40;3.10;;;;;;;21.90;48.34;97589.78;2619027;54;20061;-68
2021/10/03 11:49:38;;;;;;;3.78;2.85;;;;;;;21.91;48.11;97594.06;2619416;54;20031;-68
2021/10/03 11:52:09;;;;;;;4.38;3.20;;;;;;;21.94;48.71;97598.88;2619750;54;20030;-69
2021/10/03 11:54:49;;;;;;;3.17;2.80;;;;;;;21.94;48.15;97590.81;2619327;54;20609;-68
2021/10/03 11:57:27;;;;;;;11.77;4.10;;;;;;;21.93;48.88;97605.34;2619194;54;20027;-69